createdAt,value
2022-12-15T00:01:36.186Z,85.42
2022-12-15T00:08:56.681Z,85.48
2022-12-15T00:16:17.203Z,85.66
2022-12-15T00:23:37.738Z,85.52
2022-12-15T00:31:02.328Z,85.58
2022-12-15T00:38:32.974Z,85.89
2022-12-15T00:45:53.289Z,85.99
2022-12-15T00:53:13.494Z,85.92
2022-12-15T01:00:34.106Z,86.14
2022-12-15T01:07:54.467Z,86.45
2022-12-15T01:15:15.051Z,86.48
2022-12-15T01:22:17.243Z,86.71
2022-12-15T01:29:19.628Z,86.54
2022-12-15T01:36:21.930Z,86.69
2022-12-15T01:43:35.740Z,86.88
2022-12-15T01:50:42.405Z,87.12
2022-12-15T01:57:45.605Z,87.41
2022-12-15T02:04:49.609Z,87.23
2022-12-15T02:12:16.319Z,87.22
2022-12-15T02:19:39.640Z,86.90
2022-12-15T02:27:05.000Z,86.62
2022-12-15T02:34:33.388Z,86.79
2022-12-15T02:41:47.187Z,86.64
2022-12-15T02:49:08.011Z,86.52
2022-12-15T02:56:36.574Z,86.50
2022-12-15T03:03:39.557Z,86.52
2022-12-15T03:10:41.575Z,86.28
2022-12-15T03:17:43.521Z,86.46
2022-12-15T03:24:45.499Z,86.47
2022-12-15T03:31:49.994Z,86.43
2022-12-15T03:38:52.211Z,86.42
2022-12-15T03:45:54.299Z,86.33
2022-12-15T03:53:01.281Z,86.38
2022-12-15T04:00:05.193Z,86.29
2022-12-15T04:07:07.161Z,86.20
2022-12-15T04:14:10.002Z,86.20
2022-12-15T04:21:12.020Z,86.11
2022-12-15T04:28:33.082Z,86.28
2022-12-15T04:35:54.107Z,86.39
2022-12-15T04:43:14.948Z,86.10
2022-12-15T04:50:35.344Z,86.17
2022-12-15T04:57:55.827Z,86.17
2022-12-15T05:05:16.352Z,85.88
2022-12-15T05:12:36.611Z,85.84
2022-12-15T05:19:57.270Z,85.68
2022-12-15T05:27:17.733Z,85.85
2022-12-15T05:34:20.918Z,85.74
2022-12-15T05:41:23.653Z,85.95
2022-12-15T05:48:27.526Z,85.97
2022-12-15T05:55:29.744Z,85.83
2022-12-15T06:02:31.855Z,85.86
2022-12-15T06:09:33.812Z,85.89
2022-12-15T06:16:40.958Z,85.42
2022-12-15T06:23:46.833Z,85.68
2022-12-15T06:30:48.829Z,85.63
2022-12-15T06:37:50.783Z,85.69
2022-12-15T06:44:52.755Z,85.82
2022-12-15T06:51:54.706Z,85.28
2022-12-15T06:58:58.912Z,85.61
2022-12-15T07:06:09.164Z,85.61
2022-12-15T07:13:15.614Z,86.04
2022-12-15T07:20:17.873Z,85.78
2022-12-15T07:27:19.896Z,85.78
2022-12-15T07:34:22.085Z,86.12
2022-12-15T07:41:24.044Z,85.82
2022-12-15T07:48:27.684Z,85.30
2022-12-15T07:55:50.427Z,85.11
2022-12-15T08:02:52.319Z,85.24
2022-12-15T08:09:54.482Z,85.33
2022-12-15T08:16:56.720Z,85.60
2022-12-15T08:23:59.186Z,85.46
2022-12-15T08:31:10.272Z,85.58
2022-12-15T08:38:12.466Z,86.30
2022-12-15T08:45:14.446Z,85.67
2022-12-15T08:52:16.489Z,85.70
2022-12-15T08:59:20.247Z,85.87
2022-12-15T09:06:27.900Z,85.44
2022-12-15T09:13:30.788Z,85.08
2022-12-15T09:20:33.210Z,84.90
2022-12-15T09:27:35.710Z,84.67
2022-12-15T09:34:37.663Z,84.93
2022-12-15T09:41:41.094Z,84.95
2022-12-15T09:48:45.399Z,84.83
2022-12-15T09:55:50.821Z,84.95
2022-12-15T10:03:07.486Z,84.90
2022-12-15T10:10:27.329Z,84.65
2022-12-15T10:17:50.280Z,84.75
2022-12-15T10:25:09.860Z,84.70
2022-12-15T10:32:50.442Z,84.79
2022-12-15T10:39:53.142Z,84.62
2022-12-15T10:46:57.093Z,84.03
2022-12-15T10:54:02.358Z,84.15
2022-12-15T11:01:12.878Z,84.32
2022-12-15T11:08:17.252Z,84.13
2022-12-15T11:15:31.658Z,84.26
2022-12-15T11:22:46.215Z,84.04
2022-12-15T11:30:17.686Z,84.15
2022-12-15T11:37:34.314Z,84.90
2022-12-15T11:45:06.064Z,84.81
2022-12-15T11:52:31.008Z,85.13
2022-12-15T11:59:43.599Z,85.41
2022-12-15T12:07:09.480Z,85.33
2022-12-15T12:14:27.824Z,85.31
2022-12-15T12:21:38.026Z,85.32
2022-12-15T12:28:58.501Z,84.92
2022-12-15T12:36:18.523Z,84.38
2022-12-15T12:43:40.698Z,84.57
2022-12-15T12:50:43.730Z,84.63
2022-12-15T12:57:46.770Z,84.03
2022-12-15T13:05:19.319Z,85.64
2022-12-15T13:12:51.085Z,85.79
2022-12-15T13:19:59.788Z,85.41
2022-12-15T13:27:20.193Z,85.83
2022-12-15T13:34:24.288Z,85.90
2022-12-15T13:41:26.939Z,85.93
2022-12-15T13:48:42.565Z,86.05
2022-12-15T13:56:00.838Z,86.33
2022-12-15T14:03:07.868Z,86.36
2022-12-15T14:10:22.412Z,86.76
2022-12-15T14:17:24.481Z,86.86
2022-12-15T14:24:39.961Z,87.06
2022-12-15T14:32:04.694Z,86.90
2022-12-15T14:39:13.558Z,86.90
2022-12-15T14:46:26.390Z,87.12
2022-12-15T14:53:33.185Z,87.16
2022-12-15T15:00:37.590Z,86.97
2022-12-15T15:07:39.997Z,87.06
2022-12-15T15:14:43.098Z,87.02
2022-12-15T15:21:46.317Z,86.78
2022-12-15T15:28:48.653Z,86.76
2022-12-15T15:35:54.363Z,85.58
2022-12-15T15:42:56.611Z,85.47
2022-12-15T15:50:00.247Z,85.40
2022-12-15T15:57:04.289Z,85.41
2022-12-15T16:04:09.419Z,85.35
2022-12-15T16:11:15.587Z,85.58
2022-12-15T16:18:17.803Z,85.11
2022-12-15T16:25:37.391Z,84.69
2022-12-15T16:32:44.785Z,84.51
2022-12-15T16:39:47.397Z,84.48
2022-12-15T16:46:49.518Z,84.37
2022-12-15T16:53:52.552Z,84.13
2022-12-15T17:00:55.404Z,83.52
2022-12-15T17:07:58.677Z,83.68
2022-12-15T17:15:02.929Z,83.68
2022-12-15T17:22:05.004Z,83.24
2022-12-15T17:29:15.883Z,82.08
2022-12-15T17:36:27.107Z,82.40
2022-12-15T17:43:35.745Z,82.61
2022-12-15T17:50:45.363Z,82.59
2022-12-15T17:58:10.823Z,82.89
2022-12-15T18:05:17.321Z,82.18
2022-12-15T18:12:25.601Z,82.30
2022-12-15T18:19:35.162Z,82.49
2022-12-15T18:26:40.220Z,82.61
2022-12-15T18:33:45.736Z,83.46
2022-12-15T18:40:58.754Z,83.87
2022-12-15T18:48:08.954Z,84.17
2022-12-15T18:55:22.869Z,84.12
2022-12-15T19:02:25.590Z,84.33
2022-12-15T19:09:27.870Z,84.84
2022-12-15T19:16:53.324Z,84.92
2022-12-15T19:23:55.646Z,85.46
2022-12-15T19:30:59.441Z,86.25
2022-12-15T19:38:02.565Z,86.85
2022-12-15T19:45:19.710Z,87.35
2022-12-15T19:52:23.500Z,87.33
2022-12-15T19:59:28.613Z,87.96
2022-12-15T20:06:31.862Z,88.09
2022-12-15T20:13:35.041Z,88.47
2022-12-15T20:20:45.361Z,88.42
2022-12-15T20:27:51.669Z,89.26
2022-12-15T20:34:54.602Z,89.17
2022-12-15T20:41:57.805Z,89.20
2022-12-15T20:49:06.285Z,89.68
2022-12-15T20:56:09.860Z,90.39
2022-12-15T21:03:34.271Z,90.09
2022-12-15T21:10:37.912Z,89.72
2022-12-15T21:17:41.962Z,89.53
2022-12-15T21:24:44.607Z,89.63
2022-12-15T21:31:47.313Z,90.24
2022-12-15T21:38:51.793Z,90.74
2022-12-15T21:45:53.914Z,90.30
2022-12-15T21:52:57.026Z,90.74
2022-12-15T21:59:59.107Z,90.48
2022-12-15T22:07:01.865Z,90.38
2022-12-15T22:14:06.413Z,89.98
2022-12-15T22:21:08.390Z,89.75
2022-12-15T22:28:22.988Z,90.08
2022-12-15T22:35:26.892Z,89.53
2022-12-15T22:42:29.058Z,89.71
2022-12-15T22:49:35.267Z,89.14
2022-12-15T22:56:39.829Z,89.12
2022-12-15T23:03:41.988Z,88.44
2022-12-15T23:11:02.425Z,88.05
2022-12-15T23:18:04.668Z,88.06
2022-12-15T23:25:07.866Z,87.50
2022-12-15T23:32:10.319Z,87.33
2022-12-15T23:39:12.421Z,87.06
2022-12-15T23:46:14.529Z,86.88
2022-12-15T23:53:16.475Z,86.88
